createdAt,value
2022-08-25T00:01:35.542Z,11.85
2022-08-25T00:04:38.624Z,10.25
2022-08-25T00:07:42.500Z,11.38
2022-08-25T00:10:44.603Z,9.57
2022-08-25T00:14:09.608Z,9.95
2022-08-25T00:17:11.520Z,10.23
2022-08-25T00:20:13.768Z,9.43
2022-08-25T00:23:15.673Z,8.32
2022-08-25T00:26:19.160Z,9.90
2022-08-25T00:29:21.735Z,9.10
2022-08-25T00:32:25.514Z,9.32
2022-08-25T00:35:27.546Z,9.52
2022-08-25T00:38:29.714Z,8.73
2022-08-25T00:41:32.122Z,8.75
2022-08-25T00:44:35.405Z,9.15
2022-08-25T00:47:37.686Z,8.80
2022-08-25T00:50:39.980Z,9.65
2022-08-25T00:53:43.382Z,8.43
2022-08-25T00:56:46.377Z,9.75
2022-08-25T00:59:48.360Z,9.32
2022-08-25T01:02:53.618Z,9.40
2022-08-25T01:05:56.432Z,9.23
2022-08-25T01:08:59.717Z,9.02
2022-08-25T01:12:01.882Z,8.35
2022-08-25T01:15:07.227Z,8.77
2022-08-25T01:18:09.299Z,7.82
2022-08-25T01:21:11.576Z,7.60
2022-08-25T01:24:25.637Z,7.72
2022-08-25T01:27:27.798Z,7.25
2022-08-25T01:30:29.845Z,7.60
2022-08-25T01:33:32.026Z,8.05
2022-08-25T01:36:34.673Z,7.05
2022-08-25T01:39:37.086Z,7.57
2022-08-25T01:42:57.751Z,6.75
2022-08-25T01:45:59.919Z,7.43
2022-08-25T01:49:06.662Z,8.57
2022-08-25T01:52:25.385Z,7.10
2022-08-25T01:55:27.304Z,6.70
2022-08-25T01:58:32.485Z,8.00
2022-08-25T02:01:34.615Z,8.20
2022-08-25T02:04:37.442Z,7.85
2022-08-25T02:07:39.841Z,8.38
2022-08-25T02:10:42.149Z,8.38
2022-08-25T02:13:44.178Z,7.78
2022-08-25T02:16:49.596Z,6.82
2022-08-25T02:19:51.769Z,7.63
2022-08-25T02:22:56.949Z,8.63
2022-08-25T02:25:59.207Z,8.50
2022-08-25T02:29:01.298Z,8.98
2022-08-25T02:32:04.184Z,8.98
2022-08-25T02:35:09.020Z,9.02
2022-08-25T02:38:11.121Z,9.30
2022-08-25T02:41:21.407Z,9.90
2022-08-25T02:44:23.419Z,9.40
2022-08-25T02:47:26.820Z,10.18
2022-08-25T02:50:29.366Z,10.07
2022-08-25T02:53:32.585Z,10.60
2022-08-25T02:56:34.734Z,10.15
2022-08-25T02:59:36.847Z,11.90
2022-08-25T03:02:38.829Z,11.82
2022-08-25T03:05:41.259Z,11.63
2022-08-25T03:08:43.949Z,12.27
2022-08-25T03:11:47.007Z,11.85
2022-08-25T03:14:48.926Z,11.85
2022-08-25T03:17:51.726Z,12.98
2022-08-25T03:20:54.138Z,13.38
2022-08-25T03:23:57.274Z,13.48
2022-08-25T03:26:59.631Z,14.52
2022-08-25T03:30:03.368Z,13.93
2022-08-25T03:33:05.346Z,13.25
2022-08-25T03:36:08.639Z,14.38
2022-08-25T03:39:11.091Z,14.07
2022-08-25T03:42:13.227Z,13.93
2022-08-25T03:45:17.387Z,15.18
2022-08-25T03:48:19.562Z,15.40
2022-08-25T03:51:28.744Z,15.10
2022-08-25T03:54:30.956Z,14.52
2022-08-25T03:57:32.848Z,15.35
2022-08-25T04:00:35.142Z,16.02
2022-08-25T04:03:37.380Z,15.35
2022-08-25T04:06:41.695Z,15.88
2022-08-25T04:09:43.722Z,15.07
2022-08-25T04:12:46.040Z,15.65
2022-08-25T04:15:47.957Z,16.77
2022-08-25T04:18:51.902Z,16.90
2022-08-25T04:21:56.770Z,16.55
2022-08-25T04:24:59.828Z,16.70
2022-08-25T04:28:02.003Z,16.15
2022-08-25T04:31:11.794Z,18.55
2022-08-25T04:34:29.633Z,16.23
2022-08-25T04:37:33.500Z,16.30
2022-08-25T04:40:35.539Z,15.57
2022-08-25T04:43:39.943Z,17.02
2022-08-25T04:46:42.197Z,13.15
2022-08-25T04:49:44.549Z,14.88
2022-08-25T04:52:47.099Z,14.40
2022-08-25T04:55:49.386Z,15.63
2022-08-25T04:58:52.952Z,14.38
2022-08-25T05:01:55.174Z,13.35
2022-08-25T05:04:57.538Z,15.43
2022-08-25T05:07:59.930Z,14.93
2022-08-25T05:11:09.401Z,14.38
2022-08-25T05:14:15.435Z,12.60
2022-08-25T05:17:18.096Z,13.02
2022-08-25T05:20:20.554Z,13.98
2022-08-25T05:23:24.109Z,13.93
2022-08-25T05:26:27.955Z,13.82
2022-08-25T05:29:30.170Z,15.00
2022-08-25T05:32:32.286Z,14.73
2022-08-25T05:35:34.547Z,13.55
2022-08-25T05:38:37.799Z,15.75
2022-08-25T05:41:39.784Z,13.10
2022-08-25T05:44:42.214Z,13.98
2022-08-25T05:47:44.364Z,13.93
2022-08-25T05:51:07.118Z,14.27
2022-08-25T05:54:10.453Z,12.60
2022-08-25T05:57:12.746Z,12.68
2022-08-25T06:00:15.592Z,11.75
2022-08-25T06:03:18.361Z,13.50
2022-08-25T06:06:22.703Z,13.32
2022-08-25T06:09:25.167Z,12.60
2022-08-25T06:12:27.112Z,13.10
2022-08-25T06:15:29.468Z,12.05
2022-08-25T06:18:31.339Z,11.88
2022-08-25T06:21:33.543Z,14.02
2022-08-25T06:24:37.067Z,12.95
2022-08-25T06:27:39.340Z,13.73
2022-08-25T06:30:41.238Z,12.82
2022-08-25T06:33:44.260Z,13.57
2022-08-25T06:36:48.935Z,12.95
2022-08-25T06:39:51.843Z,12.52
2022-08-25T06:42:53.830Z,12.38
2022-08-25T06:45:55.939Z,11.23
2022-08-25T06:48:58.222Z,11.73
2022-08-25T06:52:00.327Z,10.70
2022-08-25T06:55:02.969Z,11.02
2022-08-25T06:58:05.724Z,10.43
2022-08-25T07:01:23.620Z,11.05
2022-08-25T07:04:28.159Z,10.38
2022-08-25T07:07:43.090Z,10.38
2022-08-25T07:10:47.997Z,8.93
2022-08-25T07:13:51.095Z,9.13
2022-08-25T07:16:53.240Z,9.07
2022-08-25T07:19:57.561Z,9.20
2022-08-25T07:23:00.004Z,8.43
2022-08-25T07:29:42.273Z,9.00
2022-08-25T07:32:44.741Z,8.07
2022-08-25T07:35:46.831Z,8.52
2022-08-25T07:38:49.246Z,8.23
2022-08-25T07:41:53.346Z,7.68
2022-08-25T07:44:55.278Z,7.50
2022-08-25T07:48:11.502Z,7.78
2022-08-25T07:51:15.668Z,8.65
2022-08-25T07:54:18.235Z,8.13
2022-08-25T07:57:22.208Z,8.50
2022-08-25T08:00:27.966Z,9.02
2022-08-25T08:03:45.404Z,7.43
2022-08-25T08:06:52.634Z,7.78
2022-08-25T08:10:10.648Z,6.78
2022-08-25T08:13:18.684Z,7.28
2022-08-25T08:16:22.768Z,7.10
2022-08-25T08:19:24.974Z,6.32
2022-08-25T08:22:29.335Z,6.88
2022-08-25T08:25:31.590Z,8.63
2022-08-25T08:28:33.981Z,8.18
2022-08-25T08:31:36.731Z,8.45
2022-08-25T08:34:38.930Z,7.97
2022-08-25T08:37:42.137Z,7.85
2022-08-25T08:41:23.316Z,8.70
2022-08-25T08:44:38.302Z,9.55
2022-08-25T08:47:46.318Z,8.73
2022-08-25T08:51:12.712Z,8.57
2022-08-25T08:54:20.330Z,8.43
2022-08-25T08:57:27.079Z,8.27
2022-08-25T09:00:31.103Z,8.93
2022-08-25T09:03:43.478Z,9.30
2022-08-25T09:06:49.543Z,8.60
2022-08-25T09:09:52.268Z,8.73
2022-08-25T09:13:12.158Z,9.63
2022-08-25T09:16:50.562Z,9.30
2022-08-25T09:20:22.817Z,7.85
2022-08-25T09:23:34.540Z,8.00
2022-08-25T09:26:45.212Z,8.02
2022-08-25T09:29:58.424Z,9.18
2022-08-25T09:33:05.109Z,8.38
2022-08-25T09:36:08.966Z,8.93
2022-08-25T09:39:11.188Z,8.57
2022-08-25T09:42:13.357Z,8.23
2022-08-25T09:45:15.778Z,9.63
2022-08-25T09:48:27.293Z,8.98
2022-08-25T09:51:42.987Z,9.27
2022-08-25T09:54:46.988Z,10.68
2022-08-25T09:57:52.873Z,9.48
2022-08-25T10:01:14.674Z,9.68
2022-08-25T10:04:29.806Z,9.57
2022-08-25T10:07:48.095Z,10.90
2022-08-25T10:10:57.609Z,9.52
2022-08-25T10:14:25.926Z,11.00
2022-08-25T10:17:30.784Z,9.25
2022-08-25T10:20:35.690Z,9.68
2022-08-25T10:23:46.985Z,9.30
2022-08-25T10:27:03.567Z,9.18
2022-08-25T10:30:08.859Z,9.25
2022-08-25T10:33:30.392Z,10.15
2022-08-25T10:36:35.094Z,9.98
2022-08-25T10:39:55.409Z,9.25
2022-08-25T10:43:19.215Z,11.60
2022-08-25T10:46:25.806Z,8.95
2022-08-25T10:49:41.903Z,8.63
2022-08-25T10:52:56.450Z,9.95
2022-08-25T10:56:07.290Z,10.80
2022-08-25T10:59:28.091Z,11.43
2022-08-25T11:02:38.244Z,10.70
2022-08-25T11:05:49.669Z,11.50
2022-08-25T11:08:58.669Z,10.32
2022-08-25T11:12:06.319Z,10.50
2022-08-25T11:15:15.433Z,9.43
2022-08-25T11:18:17.632Z,10.88
2022-08-25T11:21:27.339Z,8.85
2022-08-25T11:24:48.198Z,7.95
2022-08-25T11:28:18.316Z,8.93
2022-08-25T11:31:23.441Z,8.60
2022-08-25T11:34:28.691Z,9.07
2022-08-25T11:37:32.394Z,9.95
2022-08-25T11:40:50.047Z,9.02
2022-08-25T11:44:08.768Z,8.60
2022-08-25T11:47:21.183Z,10.30
2022-08-25T11:50:30.116Z,8.38
2022-08-25T11:54:07.679Z,8.38
2022-08-25T11:57:21.737Z,8.10
2022-08-25T12:00:42.792Z,8.90
2022-08-25T12:03:46.017Z,7.72
2022-08-25T12:07:22.157Z,8.02
2022-08-25T12:10:26.101Z,7.15
2022-08-25T12:13:50.954Z,12.88
2022-08-25T12:16:56.216Z,8.13
2022-08-25T12:19:59.872Z,8.13
2022-08-25T12:23:03.694Z,8.18
2022-08-25T12:26:23.804Z,6.78
2022-08-25T12:29:37.811Z,6.05
2022-08-25T12:33:10.076Z,7.20
2022-08-25T12:36:35.192Z,6.43
2022-08-25T12:40:03.527Z,7.43
2022-08-25T12:43:28.869Z,5.90
2022-08-25T12:46:40.122Z,6.45
2022-08-25T12:49:42.666Z,8.27
2022-08-25T12:52:46.555Z,7.38
2022-08-25T12:56:04.806Z,7.25
2022-08-25T12:59:22.396Z,6.82
2022-08-25T13:02:51.972Z,6.75
2022-08-25T13:06:06.523Z,5.82
2022-08-25T13:09:28.543Z,6.53
2022-08-25T13:12:46.855Z,6.13
2022-08-25T13:16:00.346Z,7.38
2022-08-25T13:19:06.812Z,6.38
2022-08-25T13:22:16.014Z,6.15
2022-08-25T13:25:22.982Z,7.00
2022-08-25T13:28:33.362Z,7.30
2022-08-25T13:31:38.453Z,6.55
2022-08-25T13:34:44.281Z,5.88
2022-08-25T13:37:47.722Z,6.88
2022-08-25T13:40:50.063Z,6.50
2022-08-25T13:44:01.039Z,6.38
2022-08-25T13:47:07.743Z,7.43
2022-08-25T13:50:18.243Z,5.97
2022-08-25T13:53:25.198Z,7.03
2022-08-25T13:56:40.031Z,6.43
2022-08-25T13:59:46.495Z,6.78
2022-08-25T14:02:53.882Z,5.32
2022-08-25T14:06:09.843Z,6.70
2022-08-25T14:09:17.814Z,6.63
2022-08-25T14:12:48.364Z,8.32
2022-08-25T14:15:51.789Z,7.68
2022-08-25T14:19:00.712Z,5.95
2022-08-25T14:22:04.110Z,6.38
2022-08-25T14:25:06.820Z,6.53
2022-08-25T14:28:13.926Z,6.68
2022-08-25T14:31:27.711Z,6.55
2022-08-25T14:34:36.632Z,6.68
2022-08-25T14:37:39.103Z,6.30
2022-08-25T14:40:42.495Z,6.68
2022-08-25T14:43:45.304Z,6.43
2022-08-25T14:46:55.306Z,6.80
2022-08-25T14:49:58.689Z,7.05
2022-08-25T14:53:01.269Z,6.85
2022-08-25T14:56:09.256Z,6.60
2022-08-25T14:59:12.844Z,7.25
2022-08-25T15:02:20.010Z,7.43
2022-08-25T15:05:27.146Z,6.10
2022-08-25T15:08:49.136Z,6.30
2022-08-25T15:11:55.091Z,7.00
2022-08-25T15:14:58.172Z,7.22
2022-08-25T15:18:01.270Z,7.68
2022-08-25T15:21:03.847Z,7.80
2022-08-25T15:24:07.804Z,7.10
2022-08-25T15:27:11.072Z,6.75
2022-08-25T15:30:14.105Z,6.63
2022-08-25T15:33:17.346Z,6.25
2022-08-25T15:36:24.774Z,6.93
2022-08-25T15:39:27.868Z,7.22
2022-08-25T15:42:30.139Z,5.68
2022-08-25T15:45:32.993Z,6.18
2022-08-25T15:48:35.874Z,5.72
2022-08-25T15:51:38.363Z,5.65
2022-08-25T15:54:40.533Z,5.55
2022-08-25T15:57:44.146Z,5.65
2022-08-25T16:00:56.159Z,6.10
2022-08-25T16:03:59.110Z,11.73
2022-08-25T16:07:01.192Z,7.68
2022-08-25T16:10:04.943Z,7.15
2022-08-25T16:13:09.964Z,6.18
2022-08-25T16:16:12.265Z,5.97
2022-08-25T16:19:15.040Z,5.88
2022-08-25T16:22:17.624Z,5.90
2022-08-25T16:25:20.633Z,6.43
2022-08-25T16:28:24.389Z,6.47
2022-08-25T16:31:26.963Z,6.35
2022-08-25T16:34:30.651Z,5.68
2022-08-25T16:37:35.619Z,5.35
2022-08-25T16:40:40.025Z,6.25
2022-08-25T16:43:44.113Z,5.95
2022-08-25T16:46:46.432Z,5.63
2022-08-25T16:49:49.842Z,6.25
2022-08-25T16:53:10.678Z,6.20
2022-08-25T16:56:12.603Z,5.18
2022-08-25T16:59:14.803Z,6.28
2022-08-25T17:02:16.798Z,5.85
2022-08-25T17:05:23.632Z,6.13
2022-08-25T17:08:29.034Z,5.47
2022-08-25T17:11:35.164Z,6.22
2022-08-25T17:14:37.316Z,6.22
2022-08-25T17:17:39.436Z,6.22
2022-08-25T17:20:44.671Z,6.28
2022-08-25T17:23:47.182Z,6.40
2022-08-25T17:26:53.244Z,5.85
2022-08-25T17:29:55.862Z,6.13
2022-08-25T17:32:58.336Z,6.38
2022-08-25T17:36:00.470Z,6.18
2022-08-25T17:39:03.324Z,6.75
2022-08-25T17:42:06.423Z,6.38
2022-08-25T17:45:09.337Z,6.07
2022-08-25T17:48:13.792Z,6.78
2022-08-25T17:51:16.478Z,6.35
2022-08-25T17:54:18.800Z,6.53
2022-08-25T17:57:21.197Z,7.07
2022-08-25T18:00:23.603Z,6.20
2022-08-25T18:03:26.717Z,7.07
2022-08-25T18:06:30.984Z,6.88
2022-08-25T18:09:33.125Z,7.10
2022-08-25T18:12:36.326Z,7.10
2022-08-25T18:15:42.348Z,7.20
2022-08-25T18:18:45.052Z,6.88
2022-08-25T18:21:47.104Z,6.65
2022-08-25T18:24:49.509Z,7.15
2022-08-25T18:27:56.945Z,7.65
2022-08-25T18:30:59.090Z,7.20
2022-08-25T18:34:01.065Z,8.02
2022-08-25T18:37:23.073Z,7.40
2022-08-25T18:40:27.164Z,7.75
2022-08-25T18:43:31.254Z,6.75
2022-08-25T18:46:35.741Z,7.57
2022-08-25T18:49:38.367Z,8.30
2022-08-25T18:52:41.150Z,8.38
2022-08-25T18:55:44.081Z,7.60
2022-08-25T18:58:47.331Z,8.35
2022-08-25T19:01:49.952Z,7.43
2022-08-25T19:04:52.845Z,8.13
2022-08-25T19:07:54.935Z,7.47
2022-08-25T19:10:57.074Z,7.78
2022-08-25T19:13:59.780Z,7.95
2022-08-25T19:17:02.462Z,7.28
2022-08-25T19:20:11.058Z,7.25
2022-08-25T19:23:13.296Z,7.90
2022-08-25T19:26:17.345Z,7.35
2022-08-25T19:29:20.138Z,7.88
2022-08-25T19:32:22.248Z,8.13
2022-08-25T19:35:37.484Z,7.97
2022-08-25T19:38:40.464Z,7.40
2022-08-25T19:41:44.841Z,7.20
2022-08-25T19:44:48.048Z,7.50
2022-08-25T19:47:50.455Z,8.75
2022-08-25T19:50:55.933Z,7.90
2022-08-25T19:54:02.859Z,8.20
2022-08-25T19:57:11.141Z,7.50
2022-08-25T20:00:29.179Z,7.85
2022-08-25T20:03:33.008Z,7.32
2022-08-25T20:06:34.959Z,7.45
2022-08-25T20:09:40.488Z,7.65
2022-08-25T20:12:44.703Z,7.97
2022-08-25T20:15:47.474Z,7.03
2022-08-25T20:18:49.562Z,8.65
2022-08-25T20:21:52.254Z,8.85
2022-08-25T20:25:02.131Z,8.02
2022-08-25T20:28:04.305Z,9.20
2022-08-25T20:31:06.496Z,9.38
2022-08-25T20:34:08.746Z,8.32
2022-08-25T20:37:12.437Z,7.88
2022-08-25T20:40:25.711Z,8.05
2022-08-25T20:43:29.566Z,8.57
2022-08-25T20:46:35.319Z,7.85
2022-08-25T20:49:40.478Z,7.93
2022-08-25T20:52:44.107Z,8.65
2022-08-25T20:55:47.373Z,8.50
2022-08-25T20:58:49.829Z,8.45
2022-08-25T21:01:52.129Z,9.45
2022-08-25T21:04:57.188Z,8.68
2022-08-25T21:07:59.343Z,8.40
2022-08-25T21:11:01.536Z,8.50
2022-08-25T21:14:06.210Z,9.15
2022-08-25T21:17:12.127Z,8.70
2022-08-25T21:20:14.797Z,7.93
2022-08-25T21:23:16.943Z,8.20
2022-08-25T21:26:26.121Z,9.25
2022-08-25T21:29:29.921Z,8.32
2022-08-25T21:32:32.230Z,8.75
2022-08-25T21:35:38.436Z,9.13
2022-08-25T21:38:40.785Z,8.55
2022-08-25T21:41:45.666Z,9.32
2022-08-25T21:44:47.892Z,8.27
2022-08-25T21:47:50.292Z,8.50
2022-08-25T21:51:11.951Z,8.88
2022-08-25T21:54:18.014Z,8.95
2022-08-25T21:57:26.002Z,9.18
2022-08-25T22:00:28.185Z,10.18
2022-08-25T22:03:30.105Z,9.88
2022-08-25T22:06:34.616Z,9.63
2022-08-25T22:09:37.072Z,9.98
2022-08-25T22:12:39.416Z,9.82
2022-08-25T22:15:41.308Z,9.38
2022-08-25T22:18:43.614Z,9.20
2022-08-25T22:21:45.567Z,9.35
2022-08-25T22:24:47.766Z,9.30
2022-08-25T22:27:56.647Z,9.23
2022-08-25T22:31:04.052Z,9.88
2022-08-25T22:34:06.458Z,9.48
2022-08-25T22:37:08.621Z,9.45
2022-08-25T22:40:11.424Z,10.18
2022-08-25T22:43:13.626Z,10.10
2022-08-25T22:46:17.166Z,8.98
2022-08-25T22:49:19.460Z,9.77
2022-08-25T22:52:22.850Z,10.10
2022-08-25T22:55:42.466Z,10.18
2022-08-25T22:58:51.995Z,9.90
2022-08-25T23:01:54.756Z,11.05
2022-08-25T23:04:57.769Z,10.18
2022-08-25T23:08:03.400Z,11.15
2022-08-25T23:11:10.042Z,11.57
2022-08-25T23:14:12.627Z,10.55
2022-08-25T23:17:14.503Z,11.30
2022-08-25T23:20:35.301Z,11.82
2022-08-25T23:23:37.268Z,12.20
2022-08-25T23:26:42.375Z,12.18
2022-08-25T23:29:47.860Z,11.85
2022-08-25T23:32:50.738Z,11.48
2022-08-25T23:36:01.280Z,11.10
2022-08-25T23:39:05.089Z,11.13
2022-08-25T23:42:09.575Z,11.55
2022-08-25T23:45:12.584Z,10.98
2022-08-25T23:48:14.936Z,10.25
2022-08-25T23:51:29.880Z,11.32
2022-08-25T23:54:31.886Z,11.30
2022-08-25T23:57:34.726Z,12.02
